• Join FlightAware (Why Join?)
  • Login
  • US Flag 
10:30AM EDT


 

Airport Tracker/Info


-or-


 

Live Flight TrackerFlight Track Log ✈ CCA4523 ✈ 25-Oct-2013 ✈ ZUJZ / JZH - ZSPD / PVG

Flight Track Log - Related Links

Times and Time Zones

All times are in EDT time to prevent confusion due to time zone crossing. See the CCA4523 flight status page for this flight to view local times or setup timezone preferences in your user account.

Time Position Orientation Groundspeed Altitude Reporting Facility
EDT Latitude Longitude Course Direction KTS MPH feet Rate Location/Type
09:15PM 32.8433 104.2527 91° East  Level Estimated
09:16PM 32.8394 104.3951 92° East  Level Estimated
09:17PM 32.8354 104.5375 92° East  Level Estimated
09:18PM 32.8313 104.6798 92° East  Level Estimated
09:19PM 32.8270 104.8222 92° East  Level Estimated
09:20PM 32.8225 104.9645 92° East  Level Estimated
09:21PM 32.8178 105.1068 92° East  Level Estimated
09:22PM 32.8130 105.2492 92° East  Level Estimated
09:22PM 32.8220 104.4090 92° East 462 532 28,300  Level FlightAware
09:22PM 32.8020 104.4680 112° Southeast 466 536 29,000 1,560 Climbing FlightAware
09:23PM 32.8081 105.3914 92° East  Level Estimated
09:23PM 32.7580 104.6030 111° Southeast 477 549 30,400  Level FlightAware
09:24PM 32.7250 104.7050 111° Southeast 477 549 30,400  Level FlightAware
09:25PM 32.6850 104.8300 111° Southeast 477 549 30,400  Level FlightAware
09:26PM 32.6520 104.9290 112° Southeast 477 549 30,400  Level FlightAware
09:27PM 32.6120 105.0540 111° Southeast 477 549 30,400  Level FlightAware
09:28PM 32.5880 105.1290 111° Southeast 477 549 30,400  Level FlightAware
09:28PM 32.5550 105.2310 111° Southeast 477 549 30,400  Level FlightAware
09:29PM 32.5380 105.2830 111° Southeast 477 549 30,400  Level FlightAware
09:30PM 32.5060 105.3820 111° Southeast 477 549 30,400  Level FlightAware
09:31PM 32.4650 105.5090 111° Southeast 477 549 30,400  Level FlightAware
09:32PM 32.4240 105.6360 111° Southeast 477 549 30,400  Level FlightAware
09:32PM 32.3910 105.7370 111° Southeast 477 549 30,400  Level FlightAware
09:33PM 32.3590 105.8370 111° Southeast 477 549 30,400 60 Level FlightAware
09:36PM 32.3544 106.1629 91° East  Level Estimated
09:37PM 32.3521 106.3045 91° East  Level Estimated
09:38PM 32.3497 106.4462 91° East  Level Estimated
09:39PM 32.3471 106.5878 91° East  Level Estimated
09:40PM 32.3444 106.7295 91° East  Level Estimated
09:41PM 32.3415 106.8711 91° East  Level Estimated
09:42PM 32.3384 107.0127 91° East  Level Estimated
09:43PM 32.3352 107.1543 92° East  Level Estimated
09:44PM 32.3319 107.2959 92° East  Level Estimated
09:45PM 32.3283 107.4375 92° East  Level Estimated
09:46PM 32.3246 107.5791 92° East  Level Estimated
09:47PM 32.3208 107.7207 92° East  Level Estimated
09:48PM 32.3168 107.8622 92° East  Level Estimated
09:49PM 32.3126 108.0038 92° East  Level Estimated
09:50PM 32.3083 108.1453 92° East  Level Estimated
09:51PM 32.3038 108.2868 92° East  Level Estimated
09:52PM 32.2992 108.4283 92° East  Level Estimated
09:53PM 32.2944 108.5698 92° East  Level Estimated
09:54PM 32.2895 108.7113 92° East  Level Estimated
09:55PM 32.2843 108.8528 92° East  Level Estimated
09:56PM 32.2791 108.9942 92° East  Level Estimated
09:57PM 32.2737 109.1356 93° East  Level Estimated
09:58PM 32.2681 109.2770 93° East  Level Estimated
09:59PM 32.2623 109.4184 93° East  Level Estimated
10:00PM 32.2564 109.5598 93° East  Level Estimated
10:01PM 32.2504 109.7011 93° East  Level Estimated
10:02PM 32.2442 109.8425 93° East  Level Estimated
10:03PM 32.2378 109.9838 93° East  Level Estimated
10:04PM 32.2313 110.1251 93° East  Level Estimated
10:05PM 32.2246 110.2664 93° East  Level Estimated
10:06PM 32.2178 110.4076 93° East  Level Estimated
10:07PM 32.2108 110.5489 93° East  Level Estimated
10:08PM 32.2036 110.6901 93° East  Level Estimated
10:09PM 32.1963 110.8313 93° East  Level Estimated
10:10PM 32.1888 110.9724 94° East  Level Estimated
10:11PM 32.1812 111.1136 94° East  Level Estimated
10:12PM 32.1734 111.2547 94° East  Level Estimated
10:13PM 32.1655 111.3958 94° East  Level Estimated
10:14PM 32.1574 111.5369 94° East  Level Estimated
10:15PM 32.1491 111.6779 94° East  Level Estimated
10:16PM 32.1407 111.8189 94° East  Level Estimated
10:17PM 32.1322 111.9599 94° East  Level Estimated
10:18PM 32.1235 112.1009 94° East  Level Estimated
10:19PM 32.1146 112.2418 94° East  Level Estimated
10:20PM 32.1055 112.3827 94° East  Level Estimated
10:21PM 32.0964 112.5236 94° East  Level Estimated
10:22PM 32.0870 112.6645 94° East  Level Estimated
10:23PM 32.0775 112.8053 95° East  Level Estimated
10:24PM 32.0678 112.9461 95° East  Level Estimated
10:25PM 32.0580 113.0868 95° East  Level Estimated
10:26PM 32.0481 113.2275 95° East  Level Estimated
10:27PM 32.0379 113.3682 95° East  Level Estimated
10:27PM 33.5120 113.8480 95° East 482 555 35,100  Level FlightAware
10:28PM 32.0277 113.5089 95° East  Level Estimated
10:28PM 33.4230 114.0000 125° Southeast 483 556 35,100  Level FlightAware
10:29PM 33.3760 114.0800 125° Southeast 484 557 35,100  Level FlightAware
10:30PM 33.3180 114.1930 122° Southeast 487 560 35,100  Level FlightAware
10:30PM 33.2890 114.2730 113° Southeast 487 560 35,100  Level FlightAware
10:31PM 33.2640 114.3570 110° East 486 559 35,100  Level FlightAware
10:32PM 33.2160 114.5140 110° East 484 557 35,100  Level FlightAware
10:33PM 33.1790 114.6330 110° East 484 557 35,100  Level FlightAware
10:34PM 33.1410 114.7560 110° East 486 559 35,100  Level FlightAware
10:35PM 33.0900 114.9150 111° Southeast 489 563 35,100  Level FlightAware
10:35PM 33.0630 115.0020 110° East 490 564 35,100  Level FlightAware
10:36PM 33.0190 115.1410 111° Southeast 491 565 35,100  Level FlightAware
10:37PM 32.9670 115.3020 111° Southeast 490 564 35,100  Level FlightAware
10:37PM 32.9600 115.3250 110° East 491 565 35,100  Level FlightAware
10:38PM 32.9050 115.4960 111° Southeast 489 563 35,100  Level FlightAware
10:39PM 32.8860 115.5570 110° East 489 563 35,100  Level FlightAware
10:40PM 32.8290 115.7200 113° Southeast 489 563 35,100  Level FlightAware
10:41PM 32.8120 115.7710 112° Southeast 489 563 35,100  Level FlightAware
10:42PM 32.7780 115.8760 111° Southeast 489 563 35,100  Level FlightAware
10:44PM 32.7840 115.7510 273° West 479 551 35,100  Level FlightAware
10:44PM 32.7260 115.8330 130° Southeast 479 551 35,100  Level FlightAware
10:45PM 32.6530 115.9360 130° Southeast 479 551 35,100  Level FlightAware
10:46PM 32.5950 116.0180 130° Southeast 479 551 35,100  Level FlightAware
10:47PM 32.5510 116.0800 130° Southeast 479 551 35,100  Level FlightAware
10:47PM 32.5080 116.1420 129° Southeast 479 551 35,100  Level FlightAware
10:48PM 32.4640 116.2030 131° Southeast 479 551 35,100  Level FlightAware
10:49PM 32.4190 116.2670 130° Southeast 479 551 35,100  Level FlightAware
10:49PM 32.3610 116.3490 130° Southeast 479 551 35,100  Level FlightAware
10:50PM 32.2880 116.4510 130° Southeast 479 551 35,100  Level FlightAware
10:51PM 32.2590 116.4920 130° Southeast 479 551 35,100  Level FlightAware
10:51PM 32.2130 116.5570 130° Southeast 479 551 35,100  Level FlightAware
10:52PM 32.1720 116.6150 130° Southeast 479 551 35,100  Level FlightAware
10:55PM 32.1100 116.9632 102° East  Level Estimated
10:56PM 32.0852 117.1014 102° East  Level Estimated
10:57PM 32.0601 117.2395 102° East  Level Estimated
10:58PM 32.0350 117.3775 102° East  Level Estimated
10:59PM 32.0096 117.5155 102° East  Level Estimated
11:00PM 31.9841 117.6534 102° East  Level Estimated
11:01PM 31.9585 117.7913 102° East  Level Estimated
11:02PM 31.9327 117.9290 102° East  Level Estimated
11:02PM 31.6490 118.8040 102° East 523 602 35,100  Level FlightAware
11:03PM 31.9068 118.0667 102° East  Level Estimated
11:04PM 31.6450 118.9220 92° East 523 602 34,700  Level FlightAware
11:04PM 31.6440 118.9820 91° East 523 602 34,700  Level FlightAware
11:04PM 31.6410 119.0640 92° East 523 602 34,700  Level FlightAware
11:05PM 31.6380 119.1540 92° East 523 602 34,700  Level FlightAware
11:06PM 31.6360 119.2360 92° East 523 602 34,700  Level FlightAware
11:06PM 31.6340 119.2960 92° East 523 602 34,700  Level FlightAware
11:07PM 31.6320 119.3830 92° East 523 602 34,700  Level FlightAware
11:07PM 31.6290 119.4720 92° East 523 602 34,700  Level FlightAware
11:08PM 31.6260 119.5590 92° East 523 602 34,700  Level FlightAware
11:09PM 31.6220 119.7070 92° East 523 602 34,700  Level FlightAware
11:09PM 31.6200 119.7670 92° East 523 602 34,700  Level FlightAware
11:10PM 31.6180 119.8540 92° East 523 602 34,700  Level FlightAware
11:10PM 31.6160 119.9120 92° East 523 602 34,700  Level FlightAware
11:11PM 31.6130 119.9990 92° East 523 602 34,700  Level FlightAware
11:12PM 31.6110 120.0900 91° East 523 602 34,700 -6,240 Level FlightAware
11:13PM 31.5150 120.5710 103° East 418 481 19,700 -6,360 Descending FlightAware
11:14PM 31.4930 120.6460 109° East 416 479 19,700 -1,500 Level FlightAware
11:15PM 31.4520 120.7830 109° East 405 466 17,200 -2,220 Descending FlightAware
11:16PM 31.4310 120.8520 110° East 395 455 16,000 -2,100 Descending FlightAware
11:17PM 31.3940 120.9720 110° East 382 440 13,900 -1,200 Descending FlightAware
11:18PM 31.3630 121.0760 109° East 352 405 13,800 -120 Descending FlightAware
11:18PM 31.3480 121.1130 115° Southeast 331 381 13,800  Level FlightAware
11:19PM 31.3000 121.1640 138° Southeast 323 372 13,800  Level FlightAware
11:19PM 31.2600 121.2040 139° Southeast 321 369 13,800 -240 Level FlightAware
11:20PM 31.1990 121.2650 139° Southeast 320 368 13,500 -1,200 Descending FlightAware
11:21PM 31.1340 121.3310 139° Southeast 328 377 11,600 -2,040 Descending FlightAware
11:22PM 31.1140 121.3670 123° Southeast 329 379 10,700 -2,160 Descending FlightAware
11:22PM 31.0970 121.4130 113° Southeast 325 374 9,800 -1,560 Descending FlightAware
11:22PM 31.0830 121.4540 112° Southeast 308 354 9,400 -1,080 Descending FlightAware
11:23PM 31.0760 121.4740 112° Southeast 296 341 9,100 -2,220 Descending FlightAware
11:23PM 31.0520 121.5400 113° Southeast 289 333 7,200 -1,740 Descending FlightAware
11:24PM 31.0320 121.5920 114° Southeast 252 290 6,700 -540 Descending FlightAware
11:24PM 31.0240 121.6150 112° Southeast 229 264 6,700 -240 Level FlightAware
11:25PM 31.0120 121.6480 113° Southeast 210 242 6,500 -780 Descending FlightAware
11:25PM 30.9890 121.6770 133° Southeast 211 243 5,900 -1,140 Descending FlightAware
11:26PM 30.9680 121.6910 150° Southeast 211 243 5,400 -1,140 Descending FlightAware
11:26PM 30.9360 121.7120 151° Southeast 210 242 4,800 -720 Descending FlightAware
11:27PM 30.9170 121.7250 150° Southeast 211 243 4,700 -120 Descending FlightAware
11:27PM 30.8940 121.7400 151° Southeast 207 238 4,700  Level FlightAware
11:28PM 30.8710 121.7550 151° Southeast 207 238 4,700 -240 Level FlightAware
11:28PM 30.8420 121.7770 147° Southeast 212 244 4,500 -480 Descending FlightAware
11:29PM 30.8350 121.7930 117° Southeast 193 222 4,300 -720 Descending FlightAware
11:29PM 30.8340 121.8450 91° East 180 207 3,700 -420 Descending FlightAware
11:30PM 30.8590 121.8640 33° Northeast 154 177 3,700  Level FlightAware
11:31PM 30.8790 121.8700 14° North 135 155 3,700  Level FlightAware
11:31PM 30.9000 121.8760 14° North 132 152 3,700  Level FlightAware
11:32PM 30.9270 121.8690 347° North 134 154 3,700 -180 Level FlightAware
11:32PM 30.9460 121.8620 342° North 135 155 3,500 -600 Descending FlightAware
11:33PM 30.9650 121.8550 342° North 135 155 3,100 -780 Descending FlightAware
11:33PM 30.9790 121.8500 343° North 134 154 2,800 -840 Descending FlightAware
11:34PM 31.0020 121.8410 341° North 134 154 2,300 -840 Descending FlightAware
11:34PM 31.0230 121.8330 342° North 123 142 1,900 -600 Descending FlightAware
11:35PM 31.0410 121.8260 342° North 102 117 1,600 -660 Descending FlightAware
11:36PM 31.0560 121.8210 344° North 103 119 1,200 -660 Descending FlightAware
11:36PM 31.0730 121.8140 341° North 100 115 900 -300 Descending FlightAware
11:37PM 31.0830 121.8100 341° North 100 115 900 -600 Level FlightAware
11:37PM 31.0990 121.8050 345° North 107 123 400 -540 Descending FlightAware
11:38PM 31.1100 121.8010 343° North 106 122 400  Level FlightAware